sensor_id;sensor_type;location;lat;lon;timestamp;P1;durP1;ratioP1;P2;durP2;ratioP2
54241;SDS011;40156;51.080;17.082;2022-10-18T00:01:10;13.23;;;8.05;;
54241;SDS011;40156;51.080;17.082;2022-10-18T00:03:42;17.40;;;9.65;;
54241;SDS011;40156;51.080;17.082;2022-10-18T00:09:46;23.73;;;10.18;;
54241;SDS011;40156;51.080;17.082;2022-10-18T00:12:13;18.65;;;10.20;;
54241;SDS011;40156;51.080;17.082;2022-10-18T00:14:40;17.35;;;9.35;;
54241;SDS011;40156;51.080;17.082;2022-10-18T00:17:08;16.30;;;8.77;;
54241;SDS011;40156;51.080;17.082;2022-10-18T00:19:35;18.73;;;8.95;;
54241;SDS011;40156;51.080;17.082;2022-10-18T00:22:03;15.40;;;8.73;;
54241;SDS011;40156;51.080;17.082;2022-10-18T00:24:30;18.08;;;9.43;;
54241;SDS011;40156;51.080;17.082;2022-10-18T00:26:57;14.88;;;7.93;;
54241;SDS011;40156;51.080;17.082;2022-10-18T00:29:25;14.27;;;8.07;;
54241;SDS011;40156;51.080;17.082;2022-10-18T00:39:42;14.30;;;7.85;;
54241;SDS011;40156;51.080;17.082;2022-10-18T00:42:12;11.95;;;6.90;;
54241;SDS011;40156;51.080;17.082;2022-10-18T00:50:50;10.77;;;6.25;;
54241;SDS011;40156;51.080;17.082;2022-10-18T00:56:49;11.52;;;6.50;;
54241;SDS011;40156;51.080;17.082;2022-10-18T00:59:17;9.50;;;6.15;;
54241;SDS011;40156;51.080;17.082;2022-10-18T01:05:17;12.93;;;5.85;;
54241;SDS011;40156;51.080;17.082;2022-10-18T01:10:48;11.55;;;6.90;;
54241;SDS011;40156;51.080;17.082;2022-10-18T01:25:56;11.20;;;7.47;;
54241;SDS011;40156;51.080;17.082;2022-10-18T01:28:30;15.02;;;7.18;;
54241;SDS011;40156;51.080;17.082;2022-10-18T01:31:02;9.27;;;6.22;;
54241;SDS011;40156;51.080;17.082;2022-10-18T01:37:02;9.73;;;6.45;;
54241;SDS011;40156;51.080;17.082;2022-10-18T01:39:31;11.73;;;7.38;;
54241;SDS011;40156;51.080;17.082;2022-10-18T01:42:02;13.60;;;7.25;;
54241;SDS011;40156;51.080;17.082;2022-10-18T01:44:32;15.20;;;6.50;;
54241;SDS011;40156;51.080;17.082;2022-10-18T01:47:00;10.95;;;5.85;;
54241;SDS011;40156;51.080;17.082;2022-10-18T01:49:28;10.10;;;5.68;;
54241;SDS011;40156;51.080;17.082;2022-10-18T01:51:55;13.00;;;6.22;;
54241;SDS011;40156;51.080;17.082;2022-10-18T01:54:25;10.93;;;6.00;;
54241;SDS011;40156;51.080;17.082;2022-10-18T02:02:20;10.02;;;6.18;;
54241;SDS011;40156;51.080;17.082;2022-10-18T02:05:05;10.68;;;6.50;;
54241;SDS011;40156;51.080;17.082;2022-10-18T02:11:02;12.05;;;7.20;;
54241;SDS011;40156;51.080;17.082;2022-10-18T02:13:45;11.68;;;6.53;;
54241;SDS011;40156;51.080;17.082;2022-10-18T02:16:15;9.15;;;6.53;;
54241;SDS011;40156;51.080;17.082;2022-10-18T02:19:45;10.68;;;6.00;;
54241;SDS011;40156;51.080;17.082;2022-10-18T02:21:41;11.73;;;7.00;;
54241;SDS011;40156;51.080;17.082;2022-10-18T02:24:10;10.30;;;6.35;;
54241;SDS011;40156;51.080;17.082;2022-10-18T02:26:38;12.10;;;6.93;;
54241;SDS011;40156;51.080;17.082;2022-10-18T02:29:06;10.00;;;6.90;;
54241;SDS011;40156;51.080;17.082;2022-10-18T02:31:42;12.82;;;7.53;;
54241;SDS011;40156;51.080;17.082;2022-10-18T02:39:57;12.57;;;7.13;;
54241;SDS011;40156;51.080;17.082;2022-10-18T02:42:28;16.55;;;7.68;;
54241;SDS011;40156;51.080;17.082;2022-10-18T02:44:59;13.80;;;7.43;;
54241;SDS011;40156;51.080;17.082;2022-10-18T02:47:26;11.50;;;6.93;;
54241;SDS011;40156;51.080;17.082;2022-10-18T02:49:53;14.02;;;7.68;;
54241;SDS011;40156;51.080;17.082;2022-10-18T02:52:21;15.30;;;7.60;;
54241;SDS011;40156;51.080;17.082;2022-10-18T02:54:48;13.00;;;7.53;;
54241;SDS011;40156;51.080;17.082;2022-10-18T02:57:16;10.63;;;6.43;;
54241;SDS011;40156;51.080;17.082;2022-10-18T02:59:45;14.13;;;7.13;;
54241;SDS011;40156;51.080;17.082;2022-10-18T03:02:12;12.85;;;8.07;;
54241;SDS011;40156;51.080;17.082;2022-10-18T03:04:52;18.63;;;7.50;;
54241;SDS011;40156;51.080;17.082;2022-10-18T03:07:19;11.70;;;7.00;;
54241;SDS011;40156;51.080;17.082;2022-10-18T03:10:02;12.10;;;7.60;;
54241;SDS011;40156;51.080;17.082;2022-10-18T03:12:30;12.00;;;7.28;;
54241;SDS011;40156;51.080;17.082;2022-10-18T03:14:57;14.05;;;7.32;;
54241;SDS011;40156;51.080;17.082;2022-10-18T03:17:25;13.70;;;8.25;;
54241;SDS011;40156;51.080;17.082;2022-10-18T03:19:52;13.02;;;8.43;;
54241;SDS011;40156;51.080;17.082;2022-10-18T03:22:20;13.13;;;8.15;;
54241;SDS011;40156;51.080;17.082;2022-10-18T03:24:47;16.85;;;8.30;;
54241;SDS011;40156;51.080;17.082;2022-10-18T03:27:15;12.93;;;7.95;;
54241;SDS011;40156;51.080;17.082;2022-10-18T03:29:42;14.05;;;9.10;;
54241;SDS011;40156;51.080;17.082;2022-10-18T03:32:09;14.93;;;8.13;;
54241;SDS011;40156;51.080;17.082;2022-10-18T03:34:37;13.88;;;8.73;;
54241;SDS011;40156;51.080;17.082;2022-10-18T03:37:06;14.02;;;8.57;;
54241;SDS011;40156;51.080;17.082;2022-10-18T03:39:34;14.00;;;7.82;;
54241;SDS011;40156;51.080;17.082;2022-10-18T03:42:01;13.15;;;7.60;;
54241;SDS011;40156;51.080;17.082;2022-10-18T03:44:29;13.68;;;8.18;;
54241;SDS011;40156;51.080;17.082;2022-10-18T03:46:56;15.13;;;8.27;;
54241;SDS011;40156;51.080;17.082;2022-10-18T03:49:24;17.30;;;8.75;;
54241;SDS011;40156;51.080;17.082;2022-10-18T03:51:51;15.98;;;9.25;;
54241;SDS011;40156;51.080;17.082;2022-10-18T03:54:18;21.52;;;9.60;;
54241;SDS011;40156;51.080;17.082;2022-10-18T03:56:46;17.30;;;9.05;;
54241;SDS011;40156;51.080;17.082;2022-10-18T03:59:13;13.32;;;8.27;;
54241;SDS011;40156;51.080;17.082;2022-10-18T04:01:40;13.02;;;8.25;;
54241;SDS011;40156;51.080;17.082;2022-10-18T04:07:40;13.88;;;8.25;;
54241;SDS011;40156;51.080;17.082;2022-10-18T04:13:48;13.73;;;7.60;;
54241;SDS011;40156;51.080;17.082;2022-10-18T04:16:16;13.93;;;8.20;;
54241;SDS011;40156;51.080;17.082;2022-10-18T04:18:43;12.07;;;7.85;;
54241;SDS011;40156;51.080;17.082;2022-10-18T04:21:10;16.45;;;8.57;;
54241;SDS011;40156;51.080;17.082;2022-10-18T04:23:38;17.00;;;9.05;;
54241;SDS011;40156;51.080;17.082;2022-10-18T04:26:06;13.75;;;8.10;;
54241;SDS011;40156;51.080;17.082;2022-10-18T04:28:33;18.10;;;8.93;;
54241;SDS011;40156;51.080;17.082;2022-10-18T04:31:01;15.13;;;8.23;;
54241;SDS011;40156;51.080;17.082;2022-10-18T04:33:28;19.23;;;10.05;;
54241;SDS011;40156;51.080;17.082;2022-10-18T04:39:50;14.45;;;8.68;;
54241;SDS011;40156;51.080;17.082;2022-10-18T04:42:20;18.08;;;8.73;;
54241;SDS011;40156;51.080;17.082;2022-10-18T04:44:48;20.55;;;9.18;;
54241;SDS011;40156;51.080;17.082;2022-10-18T04:47:16;19.83;;;10.75;;
54241;SDS011;40156;51.080;17.082;2022-10-18T04:49:43;24.58;;;10.93;;
54241;SDS011;40156;51.080;17.082;2022-10-18T04:52:11;25.95;;;12.38;;
54241;SDS011;40156;51.080;17.082;2022-10-18T04:54:38;26.15;;;12.98;;
54241;SDS011;40156;51.080;17.082;2022-10-18T04:57:06;31.73;;;14.25;;
54241;SDS011;40156;51.080;17.082;2022-10-18T04:59:33;26.17;;;14.25;;
54241;SDS011;40156;51.080;17.082;2022-10-18T05:02:00;31.42;;;13.27;;
54241;SDS011;40156;51.080;17.082;2022-10-18T05:04:28;34.75;;;13.48;;
54241;SDS011;40156;51.080;17.082;2022-10-18T05:10:17;24.17;;;12.33;;
54241;SDS011;40156;51.080;17.082;2022-10-18T05:16:07;33.05;;;13.70;;
54241;SDS011;40156;51.080;17.082;2022-10-18T05:18:34;23.92;;;12.82;;
54241;SDS011;40156;51.080;17.082;2022-10-18T05:21:02;23.52;;;11.68;;
54241;SDS011;40156;51.080;17.082;2022-10-18T05:23:29;23.10;;;12.57;;
54241;SDS011;40156;51.080;17.082;2022-10-18T05:25:59;25.92;;;12.30;;
54241;SDS011;40156;51.080;17.082;2022-10-18T05:28:27;26.05;;;13.07;;
54241;SDS011;40156;51.080;17.082;2022-10-18T05:31:10;21.73;;;11.25;;
54241;SDS011;40156;51.080;17.082;2022-10-18T05:33:50;23.20;;;12.75;;
54241;SDS011;40156;51.080;17.082;2022-10-18T05:36:17;26.75;;;11.98;;
54241;SDS011;40156;51.080;17.082;2022-10-18T05:38:45;25.58;;;12.55;;
54241;SDS011;40156;51.080;17.082;2022-10-18T05:41:14;20.30;;;10.73;;
54241;SDS011;40156;51.080;17.082;2022-10-18T05:43:42;23.10;;;11.10;;
54241;SDS011;40156;51.080;17.082;2022-10-18T05:46:09;28.15;;;10.95;;
54241;SDS011;40156;51.080;17.082;2022-10-18T05:48:42;20.10;;;10.40;;
54241;SDS011;40156;51.080;17.082;2022-10-18T05:51:10;20.45;;;9.27;;
54241;SDS011;40156;51.080;17.082;2022-10-18T05:53:37;24.90;;;10.63;;
54241;SDS011;40156;51.080;17.082;2022-10-18T05:56:05;20.70;;;10.25;;
54241;SDS011;40156;51.080;17.082;2022-10-18T05:58:33;22.05;;;9.82;;
54241;SDS011;40156;51.080;17.082;2022-10-18T06:01:01;22.88;;;10.75;;
54241;SDS011;40156;51.080;17.082;2022-10-18T06:03:29;18.35;;;9.98;;
54241;SDS011;40156;51.080;17.082;2022-10-18T06:05:58;28.67;;;10.80;;
54241;SDS011;40156;51.080;17.082;2022-10-18T06:08:29;24.77;;;10.82;;
54241;SDS011;40156;51.080;17.082;2022-10-18T06:10:56;25.35;;;11.68;;
54241;SDS011;40156;51.080;17.082;2022-10-18T06:13:25;24.77;;;11.10;;
54241;SDS011;40156;51.080;17.082;2022-10-18T06:15:54;23.08;;;10.30;;
54241;SDS011;40156;51.080;17.082;2022-10-18T06:18:22;20.90;;;9.55;;
54241;SDS011;40156;51.080;17.082;2022-10-18T06:20:54;22.42;;;9.13;;
54241;SDS011;40156;51.080;17.082;2022-10-18T06:23:24;17.80;;;9.52;;
54241;SDS011;40156;51.080;17.082;2022-10-18T06:26:00;19.13;;;9.05;;
54241;SDS011;40156;51.080;17.082;2022-10-18T06:28:33;17.23;;;8.95;;
54241;SDS011;40156;51.080;17.082;2022-10-18T06:31:02;20.23;;;8.55;;
54241;SDS011;40156;51.080;17.082;2022-10-18T06:33:32;16.67;;;9.38;;
54241;SDS011;40156;51.080;17.082;2022-10-18T06:36:03;14.38;;;8.48;;
54241;SDS011;40156;51.080;17.082;2022-10-18T06:38:33;21.60;;;8.40;;
54241;SDS011;40156;51.080;17.082;2022-10-18T06:41:01;18.45;;;8.60;;
54241;SDS011;40156;51.080;17.082;2022-10-18T06:43:30;15.70;;;9.55;;
54241;SDS011;40156;51.080;17.082;2022-10-18T06:45:59;19.50;;;7.97;;
54241;SDS011;40156;51.080;17.082;2022-10-18T06:48:29;14.70;;;7.75;;
54241;SDS011;40156;51.080;17.082;2022-10-18T06:50:58;12.35;;;7.60;;
54241;SDS011;40156;51.080;17.082;2022-10-18T06:53:29;12.35;;;7.32;;
54241;SDS011;40156;51.080;17.082;2022-10-18T06:55:59;16.13;;;7.60;;
54241;SDS011;40156;51.080;17.082;2022-10-18T06:58:35;10.48;;;6.95;;
54241;SDS011;40156;51.080;17.082;2022-10-18T07:01:07;16.27;;;7.72;;
54241;SDS011;40156;51.080;17.082;2022-10-18T07:03:37;16.38;;;7.72;;
54241;SDS011;40156;51.080;17.082;2022-10-18T07:06:06;14.27;;;7.20;;
54241;SDS011;40156;51.080;17.082;2022-10-18T07:08:36;15.20;;;8.73;;
54241;SDS011;40156;51.080;17.082;2022-10-18T07:11:05;31.52;;;15.13;;
54241;SDS011;40156;51.080;17.082;2022-10-18T07:13:35;28.88;;;14.98;;
54241;SDS011;40156;51.080;17.082;2022-10-18T07:16:07;25.33;;;13.95;;
54241;SDS011;40156;51.080;17.082;2022-10-18T07:18:41;26.67;;;12.45;;
54241;SDS011;40156;51.080;17.082;2022-10-18T07:21:11;20.75;;;12.45;;
54241;SDS011;40156;51.080;17.082;2022-10-18T07:23:42;19.35;;;11.55;;
54241;SDS011;40156;51.080;17.082;2022-10-18T07:26:21;20.85;;;11.40;;
54241;SDS011;40156;51.080;17.082;2022-10-18T07:28:52;18.70;;;10.25;;
54241;SDS011;40156;51.080;17.082;2022-10-18T07:31:26;14.95;;;9.80;;
54241;SDS011;40156;51.080;17.082;2022-10-18T07:33:54;17.15;;;9.80;;
54241;SDS011;40156;51.080;17.082;2022-10-18T07:36:22;19.98;;;9.18;;
54241;SDS011;40156;51.080;17.082;2022-10-18T07:38:50;14.68;;;8.57;;
54241;SDS011;40156;51.080;17.082;2022-10-18T07:41:19;14.20;;;8.30;;
54241;SDS011;40156;51.080;17.082;2022-10-18T07:43:48;15.35;;;8.38;;
54241;SDS011;40156;51.080;17.082;2022-10-18T07:46:18;17.10;;;8.70;;
54241;SDS011;40156;51.080;17.082;2022-10-18T07:48:46;12.23;;;7.20;;
54241;SDS011;40156;51.080;17.082;2022-10-18T07:51:14;9.45;;;7.40;;
54241;SDS011;40156;51.080;17.082;2022-10-18T07:53:43;10.80;;;7.38;;
54241;SDS011;40156;51.080;17.082;2022-10-18T07:56:12;11.65;;;7.28;;
54241;SDS011;40156;51.080;17.082;2022-10-18T08:01:11;10.88;;;7.68;;
54241;SDS011;40156;51.080;17.082;2022-10-18T08:03:40;8.38;;;7.07;;
54241;SDS011;40156;51.080;17.082;2022-10-18T08:06:10;10.15;;;7.60;;
54241;SDS011;40156;51.080;17.082;2022-10-18T08:08:39;11.98;;;6.95;;
54241;SDS011;40156;51.080;17.082;2022-10-18T08:11:09;9.50;;;6.82;;
54241;SDS011;40156;51.080;17.082;2022-10-18T08:13:39;10.40;;;6.65;;
54241;SDS011;40156;51.080;17.082;2022-10-18T08:16:08;12.45;;;7.20;;
54241;SDS011;40156;51.080;17.082;2022-10-18T08:18:41;9.77;;;7.20;;
54241;SDS011;40156;51.080;17.082;2022-10-18T08:21:10;8.50;;;7.28;;
54241;SDS011;40156;51.080;17.082;2022-10-18T08:26:31;9.00;;;6.60;;
54241;SDS011;40156;51.080;17.082;2022-10-18T08:28:59;8.65;;;6.97;;
54241;SDS011;40156;51.080;17.082;2022-10-18T08:31:48;11.35;;;6.82;;
54241;SDS011;40156;51.080;17.082;2022-10-18T08:34:17;10.73;;;6.55;;
54241;SDS011;40156;51.080;17.082;2022-10-18T08:36:46;13.90;;;8.48;;
54241;SDS011;40156;51.080;17.082;2022-10-18T08:39:14;10.13;;;8.02;;
54241;SDS011;40156;51.080;17.082;2022-10-18T08:41:45;15.70;;;10.30;;
54241;SDS011;40156;51.080;17.082;2022-10-18T08:44:26;14.75;;;8.90;;
54241;SDS011;40156;51.080;17.082;2022-10-18T08:47:03;12.20;;;8.65;;
54241;SDS011;40156;51.080;17.082;2022-10-18T08:49:38;16.65;;;11.27;;
54241;SDS011;40156;51.080;17.082;2022-10-18T08:54:53;10.52;;;9.43;;
54241;SDS011;40156;51.080;17.082;2022-10-18T08:57:27;13.40;;;11.32;;
54241;SDS011;40156;51.080;17.082;2022-10-18T08:59:55;13.13;;;9.30;;
54241;SDS011;40156;51.080;17.082;2022-10-18T09:05:42;14.27;;;9.32;;
54241;SDS011;40156;51.080;17.082;2022-10-18T09:10:44;10.73;;;7.85;;
54241;SDS011;40156;51.080;17.082;2022-10-18T09:16:27;14.75;;;10.38;;
54241;SDS011;40156;51.080;17.082;2022-10-18T09:21:50;8.98;;;6.38;;
54241;SDS011;40156;51.080;17.082;2022-10-18T09:24:29;10.07;;;6.50;;
54241;SDS011;40156;51.080;17.082;2022-10-18T09:27:15;7.75;;;6.25;;
54241;SDS011;40156;51.080;17.082;2022-10-18T09:36:23;9.60;;;6.82;;
54241;SDS011;40156;51.080;17.082;2022-10-18T09:38:54;8.27;;;7.05;;
54241;SDS011;40156;51.080;17.082;2022-10-18T09:47:07;8.45;;;6.40;;
54241;SDS011;40156;51.080;17.082;2022-10-18T09:49:44;10.60;;;6.95;;
54241;SDS011;40156;51.080;17.082;2022-10-18T09:52:19;8.00;;;7.20;;
54241;SDS011;40156;51.080;17.082;2022-10-18T09:54:53;27.83;;;8.38;;
54241;SDS011;40156;51.080;17.082;2022-10-18T09:57:47;10.77;;;7.25;;
54241;SDS011;40156;51.080;17.082;2022-10-18T10:00:23;9.48;;;7.22;;
54241;SDS011;40156;51.080;17.082;2022-10-18T10:02:54;9.02;;;7.25;;
54241;SDS011;40156;51.080;17.082;2022-10-18T10:05:23;7.78;;;6.88;;
54241;SDS011;40156;51.080;17.082;2022-10-18T10:07:57;9.98;;;6.60;;
54241;SDS011;40156;51.080;17.082;2022-10-18T10:10:26;8.63;;;6.95;;
54241;SDS011;40156;51.080;17.082;2022-10-18T10:13:03;9.65;;;6.57;;
54241;SDS011;40156;51.080;17.082;2022-10-18T10:15:31;10.02;;;7.20;;
54241;SDS011;40156;51.080;17.082;2022-10-18T10:24:20;9.57;;;6.95;;
54241;SDS011;40156;51.080;17.082;2022-10-18T10:27:03;10.35;;;7.15;;
54241;SDS011;40156;51.080;17.082;2022-10-18T10:33:32;10.50;;;8.07;;
54241;SDS011;40156;51.080;17.082;2022-10-18T10:36:08;10.93;;;8.25;;
54241;SDS011;40156;51.080;17.082;2022-10-18T10:39:06;12.38;;;7.53;;
54241;SDS011;40156;51.080;17.082;2022-10-18T10:41:34;12.75;;;8.32;;
54241;SDS011;40156;51.080;17.082;2022-10-18T10:44:18;14.90;;;7.97;;
54241;SDS011;40156;51.080;17.082;2022-10-18T10:46:50;10.30;;;6.88;;
54241;SDS011;40156;51.080;17.082;2022-10-18T10:49:22;9.30;;;7.68;;
54241;SDS011;40156;51.080;17.082;2022-10-18T10:52:08;12.98;;;7.97;;
54241;SDS011;40156;51.080;17.082;2022-10-18T10:55:00;13.80;;;7.30;;
54241;SDS011;40156;51.080;17.082;2022-10-18T10:57:37;10.20;;;7.25;;
54241;SDS011;40156;51.080;17.082;2022-10-18T11:00:06;9.80;;;7.72;;
54241;SDS011;40156;51.080;17.082;2022-10-18T11:03:03;11.45;;;7.00;;
54241;SDS011;40156;51.080;17.082;2022-10-18T11:05:54;11.90;;;7.55;;
54241;SDS011;40156;51.080;17.082;2022-10-18T11:08:22;10.07;;;7.13;;
54241;SDS011;40156;51.080;17.082;2022-10-18T11:10:56;17.73;;;8.35;;
54241;SDS011;40156;51.080;17.082;2022-10-18T11:13:50;11.60;;;7.80;;
54241;SDS011;40156;51.080;17.082;2022-10-18T11:20:01;13.70;;;8.30;;
54241;SDS011;40156;51.080;17.082;2022-10-18T11:25:22;12.05;;;7.88;;
54241;SDS011;40156;51.080;17.082;2022-10-18T11:40:41;13.25;;;7.47;;
54241;SDS011;40156;51.080;17.082;2022-10-18T11:43:37;17.10;;;7.57;;
54241;SDS011;40156;51.080;17.082;2022-10-18T11:46:36;12.80;;;6.90;;
54241;SDS011;40156;51.080;17.082;2022-10-18T11:52:12;10.75;;;7.03;;
54241;SDS011;40156;51.080;17.082;2022-10-18T11:58:13;8.23;;;6.50;;
54241;SDS011;40156;51.080;17.082;2022-10-18T12:03:48;13.45;;;8.25;;
54241;SDS011;40156;51.080;17.082;2022-10-18T12:06:18;18.30;;;11.48;;
54241;SDS011;40156;51.080;17.082;2022-10-18T12:08:58;13.57;;;9.68;;
54241;SDS011;40156;51.080;17.082;2022-10-18T12:11:30;14.23;;;8.32;;
54241;SDS011;40156;51.080;17.082;2022-10-18T12:14:13;11.90;;;7.35;;
54241;SDS011;40156;51.080;17.082;2022-10-18T12:16:46;11.45;;;6.97;;
54241;SDS011;40156;51.080;17.082;2022-10-18T12:19:25;10.48;;;7.85;;
54241;SDS011;40156;51.080;17.082;2022-10-18T12:22:01;11.38;;;7.20;;
54241;SDS011;40156;51.080;17.082;2022-10-18T12:24:40;12.68;;;7.90;;
54241;SDS011;40156;51.080;17.082;2022-10-18T12:27:10;13.38;;;8.10;;
54241;SDS011;40156;51.080;17.082;2022-10-18T12:29:43;14.32;;;8.07;;
54241;SDS011;40156;51.080;17.082;2022-10-18T12:32:28;16.95;;;9.00;;
54241;SDS011;40156;51.080;17.082;2022-10-18T12:35:02;20.20;;;10.43;;
54241;SDS011;40156;51.080;17.082;2022-10-18T12:43:09;10.68;;;8.18;;
54241;SDS011;40156;51.080;17.082;2022-10-18T12:48:29;14.52;;;9.70;;
54241;SDS011;40156;51.080;17.082;2022-10-18T12:51:19;15.27;;;8.48;;
54241;SDS011;40156;51.080;17.082;2022-10-18T12:53:52;16.13;;;9.98;;
54241;SDS011;40156;51.080;17.082;2022-10-18T12:56:31;19.58;;;10.45;;
54241;SDS011;40156;51.080;17.082;2022-10-18T13:09:26;16.42;;;9.23;;
54241;SDS011;40156;51.080;17.082;2022-10-18T13:11:57;14.77;;;8.90;;
54241;SDS011;40156;51.080;17.082;2022-10-18T13:14:43;15.70;;;8.02;;
54241;SDS011;40156;51.080;17.082;2022-10-18T13:20:28;11.60;;;7.70;;
54241;SDS011;40156;51.080;17.082;2022-10-18T13:32:14;15.32;;;8.68;;
54241;SDS011;40156;51.080;17.082;2022-10-18T13:34:47;10.85;;;7.45;;
54241;SDS011;40156;51.080;17.082;2022-10-18T13:39:43;18.25;;;7.68;;
54241;SDS011;40156;51.080;17.082;2022-10-18T13:44:39;14.13;;;9.07;;
54241;SDS011;40156;51.080;17.082;2022-10-18T13:47:10;16.38;;;9.95;;
54241;SDS011;40156;51.080;17.082;2022-10-18T13:49:50;13.77;;;7.70;;
54241;SDS011;40156;51.080;17.082;2022-10-18T13:52:43;13.90;;;7.30;;
54241;SDS011;40156;51.080;17.082;2022-10-18T14:01:26;13.80;;;8.07;;
54241;SDS011;40156;51.080;17.082;2022-10-18T14:06:46;13.02;;;7.75;;
54241;SDS011;40156;51.080;17.082;2022-10-18T14:15:12;13.73;;;7.72;;
54241;SDS011;40156;51.080;17.082;2022-10-18T14:17:45;10.20;;;8.00;;
54241;SDS011;40156;51.080;17.082;2022-10-18T14:20:33;13.57;;;7.53;;
54241;SDS011;40156;51.080;17.082;2022-10-18T14:23:19;14.10;;;8.07;;
54241;SDS011;40156;51.080;17.082;2022-10-18T14:25:50;16.35;;;8.40;;
54241;SDS011;40156;51.080;17.082;2022-10-18T14:28:22;24.00;;;10.00;;
54241;SDS011;40156;51.080;17.082;2022-10-18T14:30:59;17.65;;;11.10;;
54241;SDS011;40156;51.080;17.082;2022-10-18T14:34:00;22.20;;;11.48;;
54241;SDS011;40156;51.080;17.082;2022-10-18T14:36:33;15.52;;;10.73;;
54241;SDS011;40156;51.080;17.082;2022-10-18T14:39:06;15.20;;;9.38;;
54241;SDS011;40156;51.080;17.082;2022-10-18T14:41:47;13.45;;;7.75;;
54241;SDS011;40156;51.080;17.082;2022-10-18T14:44:23;9.50;;;7.07;;
54241;SDS011;40156;51.080;17.082;2022-10-18T14:49:59;7.45;;;6.05;;
54241;SDS011;40156;51.080;17.082;2022-10-18T14:52:28;9.85;;;6.28;;
54241;SDS011;40156;51.080;17.082;2022-10-18T14:55:02;8.85;;;5.75;;
54241;SDS011;40156;51.080;17.082;2022-10-18T14:57:33;11.43;;;5.75;;
54241;SDS011;40156;51.080;17.082;2022-10-18T15:00:04;7.20;;;5.70;;
54241;SDS011;40156;51.080;17.082;2022-10-18T15:02:36;10.13;;;6.50;;
54241;SDS011;40156;51.080;17.082;2022-10-18T15:05:20;5.28;;;4.28;;
54241;SDS011;40156;51.080;17.082;2022-10-18T15:10:35;4.20;;;2.40;;
54241;SDS011;40156;51.080;17.082;2022-10-18T15:13:09;4.60;;;2.53;;
54241;SDS011;40156;51.080;17.082;2022-10-18T15:15:38;3.83;;;2.15;;
54241;SDS011;40156;51.080;17.082;2022-10-18T15:18:18;3.15;;;2.00;;
54241;SDS011;40156;51.080;17.082;2022-10-18T15:23:40;2.55;;;1.80;;
54241;SDS011;40156;51.080;17.082;2022-10-18T15:26:10;3.33;;;1.88;;
54241;SDS011;40156;51.080;17.082;2022-10-18T15:28:42;2.33;;;1.60;;
54241;SDS011;40156;51.080;17.082;2022-10-18T15:31:16;3.28;;;2.17;;
54241;SDS011;40156;51.080;17.082;2022-10-18T15:33:47;2.42;;;1.58;;
54241;SDS011;40156;51.080;17.082;2022-10-18T15:36:27;2.10;;;1.42;;
54241;SDS011;40156;51.080;17.082;2022-10-18T15:41:58;3.53;;;1.20;;
54241;SDS011;40156;51.080;17.082;2022-10-18T15:44:26;1.80;;;1.30;;
54241;SDS011;40156;51.080;17.082;2022-10-18T15:52:52;1.27;;;1.05;;
54241;SDS011;40156;51.080;17.082;2022-10-18T16:00:59;1.10;;;1.00;;
54241;SDS011;40156;51.080;17.082;2022-10-18T16:03:26;2.20;;;1.10;;
54241;SDS011;40156;51.080;17.082;2022-10-18T16:05:57;3.92;;;1.38;;
54241;SDS011;40156;51.080;17.082;2022-10-18T16:08:26;2.85;;;1.20;;
54241;SDS011;40156;51.080;17.082;2022-10-18T16:10:55;2.05;;;1.27;;
54241;SDS011;40156;51.080;17.082;2022-10-18T16:13:22;2.72;;;1.30;;
54241;SDS011;40156;51.080;17.082;2022-10-18T16:15:50;2.08;;;1.40;;
54241;SDS011;40156;51.080;17.082;2022-10-18T16:18:28;2.58;;;1.35;;
54241;SDS011;40156;51.080;17.082;2022-10-18T16:20:56;2.70;;;1.70;;
54241;SDS011;40156;51.080;17.082;2022-10-18T16:26:49;4.78;;;2.10;;
54241;SDS011;40156;51.080;17.082;2022-10-18T16:29:17;3.38;;;2.40;;
54241;SDS011;40156;51.080;17.082;2022-10-18T16:31:45;3.40;;;2.53;;
54241;SDS011;40156;51.080;17.082;2022-10-18T16:34:12;4.00;;;2.03;;
54241;SDS011;40156;51.080;17.082;2022-10-18T16:36:40;5.03;;;2.05;;
54241;SDS011;40156;51.080;17.082;2022-10-18T16:39:11;4.18;;;2.08;;
54241;SDS011;40156;51.080;17.082;2022-10-18T16:41:40;4.50;;;2.63;;
54241;SDS011;40156;51.080;17.082;2022-10-18T16:44:07;5.13;;;2.35;;
54241;SDS011;40156;51.080;17.082;2022-10-18T16:46:35;4.10;;;2.58;;
54241;SDS011;40156;51.080;17.082;2022-10-18T16:52:01;4.70;;;2.63;;
54241;SDS011;40156;51.080;17.082;2022-10-18T16:54:39;6.05;;;2.95;;
54241;SDS011;40156;51.080;17.082;2022-10-18T16:57:07;8.50;;;3.00;;
54241;SDS011;40156;51.080;17.082;2022-10-18T16:59:37;6.85;;;2.83;;
54241;SDS011;40156;51.080;17.082;2022-10-18T17:02:07;4.40;;;2.88;;
54241;SDS011;40156;51.080;17.082;2022-10-18T17:04:35;4.35;;;2.80;;
54241;SDS011;40156;51.080;17.082;2022-10-18T17:07:02;4.82;;;3.13;;
54241;SDS011;40156;51.080;17.082;2022-10-18T17:09:29;3.40;;;2.75;;
54241;SDS011;40156;51.080;17.082;2022-10-18T17:11:57;4.95;;;3.10;;
54241;SDS011;40156;51.080;17.082;2022-10-18T17:14:24;6.32;;;3.05;;
54241;SDS011;40156;51.080;17.082;2022-10-18T17:16:52;5.68;;;3.60;;
54241;SDS011;40156;51.080;17.082;2022-10-18T17:19:29;5.32;;;3.70;;
54241;SDS011;40156;51.080;17.082;2022-10-18T17:21:57;4.05;;;3.33;;
54241;SDS011;40156;51.080;17.082;2022-10-18T17:27:58;4.75;;;3.22;;
54241;SDS011;40156;51.080;17.082;2022-10-18T17:30:26;7.95;;;4.80;;
54241;SDS011;40156;51.080;17.082;2022-10-18T17:32:54;5.97;;;3.63;;
54241;SDS011;40156;51.080;17.082;2022-10-18T17:35:22;7.65;;;3.53;;
54241;SDS011;40156;51.080;17.082;2022-10-18T17:37:49;6.72;;;3.17;;
54241;SDS011;40156;51.080;17.082;2022-10-18T17:40:17;5.28;;;3.05;;
54241;SDS011;40156;51.080;17.082;2022-10-18T17:42:45;4.57;;;3.25;;
54241;SDS011;40156;51.080;17.082;2022-10-18T17:45:12;7.65;;;3.55;;
54241;SDS011;40156;51.080;17.082;2022-10-18T17:47:40;6.00;;;3.65;;
54241;SDS011;40156;51.080;17.082;2022-10-18T17:50:07;5.85;;;3.80;;
54241;SDS011;40156;51.080;17.082;2022-10-18T17:52:35;10.43;;;4.70;;
54241;SDS011;40156;51.080;17.082;2022-10-18T17:55:06;13.00;;;4.95;;
54241;SDS011;40156;51.080;17.082;2022-10-18T17:57:34;6.53;;;4.32;;
54241;SDS011;40156;51.080;17.082;2022-10-18T18:00:02;8.32;;;5.20;;
54241;SDS011;40156;51.080;17.082;2022-10-18T18:02:30;8.90;;;5.25;;
54241;SDS011;40156;51.080;17.082;2022-10-18T18:04:58;8.68;;;4.93;;
54241;SDS011;40156;51.080;17.082;2022-10-18T18:07:26;7.97;;;4.63;;
54241;SDS011;40156;51.080;17.082;2022-10-18T18:09:54;8.27;;;4.70;;
54241;SDS011;40156;51.080;17.082;2022-10-18T18:12:21;7.47;;;4.93;;
54241;SDS011;40156;51.080;17.082;2022-10-18T18:14:49;7.10;;;4.68;;
54241;SDS011;40156;51.080;17.082;2022-10-18T18:17:16;6.38;;;4.60;;
54241;SDS011;40156;51.080;17.082;2022-10-18T18:20:00;8.35;;;4.65;;
54241;SDS011;40156;51.080;17.082;2022-10-18T18:22:28;7.45;;;4.97;;
54241;SDS011;40156;51.080;17.082;2022-10-18T18:24:55;8.48;;;5.45;;
54241;SDS011;40156;51.080;17.082;2022-10-18T18:27:22;8.68;;;4.85;;
54241;SDS011;40156;51.080;17.082;2022-10-18T18:29:50;7.38;;;4.85;;
54241;SDS011;40156;51.080;17.082;2022-10-18T18:32:17;8.13;;;4.45;;
54241;SDS011;40156;51.080;17.082;2022-10-18T18:34:45;8.05;;;5.15;;
54241;SDS011;40156;51.080;17.082;2022-10-18T18:37:12;7.68;;;4.97;;
54241;SDS011;40156;51.080;17.082;2022-10-18T18:39:39;11.23;;;5.80;;